SAVC/CRD METAR and TAF weather

Enter ICAO airport designator
Station Type Date Time Source
SAVC METAR 2020/04/07 05:00 UTC NOAA

SAVC 070500Z 32007KT CAVOK 11/02 Q1022


Station Type Date Time Source
SAVC Decoded METAR 2020/04/07 05:00 UTC NOAA

Comodoro Rivadavia Aerodrome, Argentina (SAVC) 45-47S 067-30W 46M
Apr 07, 2020 - 01:00 AM EDT / 2020.04.07 0500 UTC
Wind: from the NW (320 degrees) at 8 MPH (7 KT):0
Visibility: greater than 7 mile(s):0
Temperature: 51 F (11 C)
Dew Point: 35 F (2 C)
Relative Humidity: 53%
Pressure (altimeter): 30.18 in. Hg (1022 hPa)
ob: SAVC 070500Z 32007KT CAVOK 11/02 Q1022
cycle: 5

Station Type Date Time Source
SAVC TAF 2020/04/07 06:33 UTC NOAA

TAF TAF SAVC 070500Z 0706/0806 30010KT CAVOK TX20/0718Z TN05/0710Z
BECMG 0713/0715 VRB05KT

Example: see airport list